Date,TemperatureHighF,TemperatureAvgF,TemperatureLowF,DewpointHighF,DewpointAvgF,DewpointLowF,HumidityHigh,HumidityAvg,HumidityLow,PressureMaxIn,PressureMinIn,WindSpeedMaxMPH,WindSpeedAvgMPH,GustSpeedMaxMPH,PrecipitationSumIn
2013-2-1,69.0,54.1,44.0,48.4,36.2,-49.6,82,61,1,30.18,30.03,7,1,12,0.00
2013-2-2,58.0,49.0,46.0,42.4,34.8,-47.8,82,66,1,30.23,30.18,10,1,16,0.00
2013-2-3,60.0,50.9,46.0,43.1,33.6,-47.8,81,61,1,30.21,30.09,10,2,14,0.00
2013-2-4,61.0,49.4,46.0,41.5,33.3,-48.4,82,63,1,30.15,30.04,10,2,20,0.00
2013-2-5,55.0,49.6,46.0,42.4,33.3,-47.8,81,62,1,30.13,30.05,11,3,21,0.00
2013-2-6,58.0,49.3,41.0,42.4,31.5,-50.9,83,61,1,30.16,30.08,14,2,17,0.00
2013-2-7,55.0,47.9,42.0,41.8,32.1,-49.0,84,63,1,30.15,30.03,11,2,17,0.31
2013-2-8,55.0,47.0,40.0,43.4,30.9,-50.3,85,62,1,30.03,29.95,13,2,23,0.18
2013-2-9,60.0,49.1,41.0,42.4,33.9,-52.1,79,64,1,30.09,29.99,10,1,13,0.00
2013-2-10,62.0,48.3,39.0,44.4,34.3,-51.5,85,65,1,30.11,29.99,6,0,9,0.00
2013-2-11,65.0,52.2,44.0,44.1,34.2,-47.8,82,59,1,30.20,30.06,15,2,16,0.00
2013-2-12,65.0,50.4,43.0,44.1,32.8,-50.9,83,61,1,30.29,30.20,7,1,12,0.00
2013-2-13,66.0,50.4,42.0,42.4,33.7,-49.6,84,62,1,30.28,30.15,9,1,14,0.00
2013-2-14,73.0,55.9,44.0,50.9,37.2,-48.4,82,59,1,30.20,30.05,7,0,12,0.00
2013-2-15,74.0,60.3,48.0,54.5,40.1,-47.2,79,58,1,30.19,30.09,7,0,9,0.00
2013-2-16,70.0,56.7,48.0,47.9,38.3,-44.1,81,59,1,30.17,29.99,9,1,19,0.00
2013-2-17,64.0,51.5,43.0,43.1,33.6,-50.3,82,60,1,30.05,29.96,15,2,19,0.00
2013-2-18,54.0,48.4,46.0,41.8,32.7,-48.4,82,63,1,30.04,29.98,13,4,20,0.00
2013-2-19,48.0,44.9,40.0,41.5,30.6,-50.9,82,64,1,29.99,29.82,12,4,22,0.44
2013-2-20,58.0,47.9,37.0,41.8,30.0,-52.1,85,60,1,30.06,29.91,15,2,17,0.00
2013-2-21,59.0,50.0,41.0,42.4,31.8,-50.9,82,59,1,30.15,30.05,13,2,16,0.00
2013-2-22,62.0,50.1,42.0,43.1,31.6,-51.5,83,60,1,30.20,30.13,17,3,22,0.00
2013-2-23,59.0,51.4,46.0,44.0,33.0,-49.6,81,59,1,30.21,30.11,12,3,19,0.01
2013-2-24,61.0,50.3,45.0,43.4,34.6,-49.0,82,64,1,30.20,30.11,12,2,17,0.00
2013-2-25,63.0,51.2,43.0,43.4,32.9,-50.3,84,60,1,30.23,30.12,10,2,16,0.00
2013-2-26,66.0,51.6,43.0,43.1,32.1,-50.9,83,58,1,30.18,30.07,13,2,20,0.00
2013-2-27,67.0,53.3,44.0,45.3,33.6,-50.3,82,59,1,30.30,30.16,12,1,17,0.00
2013-2-28,65.0,53.0,47.0,45.0,35.0,-46.0,81,60,1,30.36,30.28,13,2,20,0.00